Stratfield Mortimer, United Kingdom
Current Conditions -  °F | °C
As of 8:50 AM on Monday 24 Nov 2014 (Local Time) from EGVO Reporting Station
Clear Clear  
Wind Chill: 32°   Ceiling: Unl
Heat Index: 32°   Visibility: 6mi
Dew Point: 32°   Wind: 2mph
Humidity: 100%   Direction: 250°WSW
Pressure: 30.3"   Gusts: NA
Location:  51.37°N, 1.03°W
Report Text: EGVO 240850Z 25002KT CAVOK 00/M00 Q1026 BLU NOSIG
Loading
Personal Weather Stations






























Interactive Weather Map New forecast layout! Learn more

10-Day Weather Forecast

Advertisements
Track Severe Weather on mobile